createdAt,value
2018-05-16T00:00:39.022Z,99.90
2018-05-16T00:03:08.335Z,99.90
2018-05-16T00:05:36.699Z,99.90
2018-05-16T00:08:06.027Z,99.90
2018-05-16T00:10:34.513Z,99.90
2018-05-16T00:13:03.047Z,99.90
2018-05-16T00:15:31.467Z,99.90
2018-05-16T00:17:59.832Z,99.90
2018-05-16T00:20:28.555Z,99.90
2018-05-16T00:22:57.063Z,99.90
2018-05-16T00:25:26.229Z,99.90
2018-05-16T00:27:54.627Z,99.90
2018-05-16T00:30:23.011Z,99.90
2018-05-16T00:32:52.227Z,99.90
2018-05-16T00:35:20.599Z,99.90
2018-05-16T00:37:48.951Z,99.90
2018-05-16T00:40:17.399Z,99.90
2018-05-16T00:42:45.891Z,99.90
2018-05-16T00:45:15.047Z,99.90
2018-05-16T00:47:43.391Z,99.90
2018-05-16T00:50:11.869Z,99.90
2018-05-16T00:52:40.427Z,99.90
2018-05-16T00:55:08.812Z,99.90
2018-05-16T00:57:37.996Z,99.90
2018-05-16T01:00:06.351Z,99.90
2018-05-16T01:02:34.746Z,99.90
2018-05-16T01:05:03.151Z,99.90
2018-05-16T01:07:31.681Z,99.90
2018-05-16T01:10:00.131Z,99.90
2018-05-16T01:12:29.291Z,99.90
2018-05-16T01:14:57.818Z,99.90
2018-05-16T01:17:26.431Z,99.90
2018-05-16T01:19:54.984Z,99.90
2018-05-16T01:22:24.274Z,99.90
2018-05-16T01:24:53.578Z,99.90
2018-05-16T01:27:21.935Z,99.90
2018-05-16T01:29:50.378Z,99.90
2018-05-16T01:32:18.910Z,99.90
2018-05-16T01:34:47.394Z,99.90
2018-05-16T01:37:15.831Z,99.90
2018-05-16T01:39:44.336Z,99.90
2018-05-16T01:42:12.873Z,99.90
2018-05-16T01:44:41.267Z,99.90
2018-05-16T01:47:09.626Z,99.90
2018-05-16T01:49:38.184Z,99.90
2018-05-16T01:52:06.732Z,99.90
2018-05-16T01:54:35.270Z,99.90
2018-05-16T01:57:03.868Z,99.90
2018-05-16T01:59:32.366Z,99.90
2018-05-16T02:02:00.895Z,99.90
2018-05-16T02:04:30.013Z,99.90
2018-05-16T02:06:58.487Z,99.90
2018-05-16T02:09:26.851Z,99.90
2018-05-16T02:11:55.383Z,99.90
2018-05-16T02:14:23.835Z,99.90
2018-05-16T02:16:53.167Z,99.90
2018-05-16T02:19:21.589Z,99.90
2018-05-16T02:21:50.791Z,99.90
2018-05-16T02:24:19.234Z,99.90
2018-05-16T02:26:47.774Z,99.90
2018-05-16T02:29:16.210Z,99.90
2018-05-16T02:31:44.775Z,99.90
2018-05-16T02:34:13.143Z,99.90
2018-05-16T02:36:42.354Z,99.90
2018-05-16T02:39:11.703Z,99.90
2018-05-16T02:41:40.943Z,99.90
2018-05-16T02:44:09.379Z,99.90
2018-05-16T02:46:37.789Z,99.90
2018-05-16T02:49:06.179Z,99.90
2018-05-16T02:51:34.774Z,99.90
2018-05-16T02:54:03.166Z,99.90
2018-05-16T02:56:32.382Z,99.90
2018-05-16T02:59:00.871Z,99.90
2018-05-16T03:01:29.292Z,99.90
2018-05-16T03:03:57.653Z,99.90
2018-05-16T03:06:26.085Z,99.90
2018-05-16T03:08:54.479Z,99.90
2018-05-16T03:11:23.011Z,99.90
2018-05-16T03:13:52.219Z,99.90
2018-05-16T03:16:20.759Z,99.90
2018-05-16T03:18:49.295Z,99.90
2018-05-16T03:21:18.490Z,99.90
2018-05-16T03:23:46.854Z,99.90
2018-05-16T03:26:16.151Z,99.90
2018-05-16T03:28:45.483Z,99.90
2018-05-16T03:31:14.039Z,99.90
2018-05-16T03:33:42.404Z,99.90
2018-05-16T03:36:10.956Z,99.90
2018-05-16T03:38:39.335Z,99.90
2018-05-16T03:41:07.743Z,99.90
2018-05-16T03:43:36.323Z,99.90
2018-05-16T03:46:05.479Z,99.90
2018-05-16T03:48:33.899Z,99.90
2018-05-16T03:51:02.337Z,99.90
2018-05-16T03:53:31.625Z,99.90
2018-05-16T03:56:00.039Z,99.90
2018-05-16T03:58:40.851Z,99.90
2018-05-16T04:01:20.978Z,99.90
2018-05-16T04:04:07.131Z,99.90
2018-05-16T04:06:35.539Z,99.90
2018-05-16T04:09:04.851Z,99.90
2018-05-16T04:11:33.235Z,99.90
2018-05-16T04:14:01.601Z,99.90
2018-05-16T04:16:29.999Z,99.90
2018-05-16T04:18:58.604Z,99.90
2018-05-16T04:21:26.983Z,99.90
2018-05-16T04:23:55.363Z,99.90
2018-05-16T04:26:23.770Z,99.90
2018-05-16T04:28:52.310Z,99.90
2018-05-16T04:31:20.683Z,99.90
2018-05-16T04:33:49.271Z,99.90
2018-05-16T04:36:17.624Z,99.90
2018-05-16T04:38:46.763Z,99.90
2018-05-16T04:41:15.159Z,99.90
2018-05-16T04:43:43.525Z,99.90
2018-05-16T04:46:11.983Z,99.90
2018-05-16T04:48:41.115Z,99.90
2018-05-16T04:51:09.500Z,99.90
2018-05-16T04:53:38.807Z,99.90
2018-05-16T04:56:07.184Z,99.90
2018-05-16T04:58:35.732Z,99.90
2018-05-16T05:01:04.946Z,99.90
2018-05-16T05:03:33.354Z,99.90
2018-05-16T05:06:01.739Z,99.90
2018-05-16T05:08:30.131Z,99.90
2018-05-16T05:10:58.525Z,99.90
2018-05-16T05:13:27.856Z,99.90
2018-05-16T05:15:56.208Z,99.90
2018-05-16T05:18:24.676Z,99.90
2018-05-16T05:20:53.094Z,99.90
2018-05-16T05:23:21.632Z,99.90
2018-05-16T05:25:50.066Z,99.90
2018-05-16T05:28:18.426Z,99.90
2018-05-16T05:30:46.823Z,99.90
2018-05-16T05:33:15.199Z,99.90
2018-05-16T05:35:43.608Z,99.90
2018-05-16T05:38:12.027Z,99.90
2018-05-16T05:40:40.407Z,99.90
2018-05-16T05:43:08.800Z,99.90
2018-05-16T05:45:37.162Z,99.90
2018-05-16T05:48:05.520Z,99.90
2018-05-16T05:50:33.935Z,99.90
2018-05-16T05:53:02.466Z,99.90
2018-05-16T05:55:30.846Z,99.90
2018-05-16T05:57:59.390Z,99.90
2018-05-16T06:00:28.546Z,99.90
2018-05-16T06:02:56.958Z,99.90
2018-05-16T06:05:25.413Z,99.90
2018-05-16T06:07:53.768Z,99.90
2018-05-16T06:10:22.146Z,99.90
2018-05-16T06:12:50.521Z,99.90
2018-05-16T06:15:18.959Z,99.90
2018-05-16T06:17:48.254Z,99.90
2018-05-16T06:20:16.634Z,99.90
2018-05-16T06:22:45.039Z,99.90
2018-05-16T06:25:13.466Z,99.90
2018-05-16T06:27:42.066Z,99.90
2018-05-16T06:30:10.555Z,99.90
2018-05-16T06:32:39.717Z,99.90
2018-05-16T06:35:09.680Z,99.90
2018-05-16T06:37:38.215Z,99.90
2018-05-16T06:40:06.623Z,99.90
2018-05-16T06:42:35.183Z,99.90
2018-05-16T06:45:03.570Z,99.90
2018-05-16T06:47:32.150Z,99.90
2018-05-16T06:50:00.683Z,99.90
2018-05-16T06:52:29.817Z,99.90
2018-05-16T06:54:58.231Z,99.90
2018-05-16T06:57:26.607Z,98.60
2018-05-16T06:59:55.051Z,98.50
2018-05-16T07:02:23.610Z,94.60
2018-05-16T07:04:52.759Z,84.50
2018-05-16T07:07:22.113Z,64.00
2018-05-16T07:09:51.271Z,72.90
2018-05-16T07:12:20.575Z,59.50
2018-05-16T07:14:48.991Z,60.30
2018-05-16T07:17:17.365Z,48.70
2018-05-16T07:19:45.808Z,48.70
2018-05-16T07:22:14.242Z,48.70
2018-05-16T07:24:42.802Z,50.10
2018-05-16T07:27:11.198Z,48.90
2018-05-16T07:29:39.770Z,41.10
2018-05-16T07:32:09.012Z,35.70
2018-05-16T07:34:37.390Z,35.70
2018-05-16T07:37:05.743Z,33.60
2018-05-16T07:39:34.183Z,30.70
2018-05-16T07:42:03.323Z,25.10
2018-05-16T07:44:31.723Z,25.10
2018-05-16T07:47:00.142Z,28.10
2018-05-16T07:49:28.498Z,26.50
2018-05-16T07:51:56.979Z,24.00
2018-05-16T07:54:25.479Z,22.30
2018-05-16T07:56:53.834Z,24.30
2018-05-16T07:59:23.135Z,21.50
2018-05-16T08:01:51.522Z,21.40
2018-05-16T08:04:20.023Z,26.40
2018-05-16T08:06:48.391Z,27.70
2018-05-16T08:09:17.696Z,23.60
2018-05-16T08:11:46.233Z,23.60
2018-05-16T08:14:14.770Z,28.70
2018-05-16T08:16:43.130Z,27.10
2018-05-16T08:19:11.688Z,26.30
2018-05-16T08:21:40.146Z,24.70
2018-05-16T08:24:08.516Z,22.40
2018-05-16T08:26:36.877Z,23.30
2018-05-16T08:29:06.055Z,23.70
2018-05-16T08:31:35.208Z,24.00
2018-05-16T08:34:04.511Z,26.50
2018-05-16T08:36:32.927Z,26.50
2018-05-16T08:39:01.359Z,24.10
2018-05-16T08:41:29.722Z,21.60
2018-05-16T08:43:58.270Z,22.80
2018-05-16T08:46:26.614Z,21.10
2018-05-16T08:48:55.755Z,18.80
2018-05-16T08:51:24.367Z,18.60
2018-05-16T08:53:52.719Z,17.90
2018-05-16T08:56:21.093Z,18.20
2018-05-16T08:58:49.455Z,19.10
2018-05-16T09:01:18.046Z,28.00
2018-05-16T09:03:46.513Z,28.20
2018-05-16T09:06:14.953Z,21.70
2018-05-16T09:08:43.315Z,19.40
2018-05-16T09:11:12.614Z,21.60
2018-05-16T09:13:42.858Z,19.90
2018-05-16T09:16:11.234Z,19.90
2018-05-16T09:18:39.623Z,19.30
2018-05-16T09:21:07.999Z,23.10
2018-05-16T09:23:37.298Z,26.40
2018-05-16T09:26:05.687Z,26.20
2018-05-16T09:28:34.077Z,23.20
2018-05-16T09:31:02.497Z,19.90
2018-05-16T09:33:30.895Z,23.00
2018-05-16T09:35:59.279Z,20.70
2018-05-16T09:38:28.433Z,24.30
2018-05-16T09:40:56.825Z,24.20
2018-05-16T09:43:25.383Z,21.40
2018-05-16T09:45:53.824Z,32.40
2018-05-16T09:48:22.289Z,20.20
2018-05-16T09:50:50.655Z,25.10
2018-05-16T09:53:19.955Z,24.30
2018-05-16T09:55:48.319Z,24.30
2018-05-16T09:58:16.732Z,25.30
2018-05-16T10:00:45.195Z,25.70
2018-05-16T10:03:14.519Z,25.90
2018-05-16T10:05:42.916Z,25.80
2018-05-16T10:08:11.300Z,28.20
2018-05-16T10:10:39.795Z,28.70
2018-05-16T10:13:08.361Z,28.10
2018-05-16T10:15:36.727Z,26.90
2018-05-16T10:18:06.031Z,28.90
2018-05-16T10:20:34.416Z,28.90
2018-05-16T10:23:02.960Z,28.60
2018-05-16T10:25:31.418Z,25.50
2018-05-16T10:27:59.779Z,28.60
2018-05-16T10:30:28.155Z,28.40
2018-05-16T10:32:57.219Z,24.80
2018-05-16T10:35:25.727Z,29.40
2018-05-16T10:37:54.859Z,31.20
2018-05-16T10:40:24.219Z,27.30
2018-05-16T10:42:53.358Z,25.20
2018-05-16T10:45:21.744Z,25.30
2018-05-16T10:47:50.250Z,26.70
2018-05-16T10:50:18.690Z,25.20
2018-05-16T10:52:47.063Z,31.60
2018-05-16T10:55:15.481Z,31.00
2018-05-16T10:57:44.776Z,27.20
2018-05-16T11:00:13.243Z,27.40
2018-05-16T11:02:41.775Z,27.90
2018-05-16T11:05:10.963Z,30.30
2018-05-16T11:07:39.371Z,30.20
2018-05-16T11:10:07.907Z,41.80
2018-05-16T11:12:36.439Z,35.60
2018-05-16T11:15:04.847Z,45.50
2018-05-16T11:17:33.995Z,39.80
2018-05-16T11:20:02.543Z,39.90
2018-05-16T11:22:31.106Z,31.40
2018-05-16T11:24:59.643Z,26.00
2018-05-16T11:27:27.992Z,39.40
2018-05-16T11:29:56.434Z,33.20
2018-05-16T11:32:25.815Z,39.40
2018-05-16T11:34:54.306Z,39.30
2018-05-16T11:37:23.431Z,30.30
2018-05-16T11:39:52.676Z,25.80
2018-05-16T11:42:21.867Z,29.00
2018-05-16T11:44:50.262Z,29.00
2018-05-16T11:47:19.444Z,31.00
2018-05-16T11:49:47.820Z,31.00
2018-05-16T11:52:16.258Z,26.60
2018-05-16T11:54:44.821Z,33.40
2018-05-16T11:57:13.191Z,44.90
2018-05-16T11:59:41.580Z,45.00
2018-05-16T12:02:09.975Z,34.00
2018-05-16T12:04:39.171Z,32.00
2018-05-16T12:07:08.384Z,27.90
2018-05-16T12:09:36.919Z,28.10
2018-05-16T12:12:05.323Z,30.10
2018-05-16T12:14:34.031Z,29.20
2018-05-16T12:17:03.067Z,31.20
2018-05-16T12:19:31.479Z,30.20
2018-05-16T12:21:59.911Z,32.40
2018-05-16T12:24:28.445Z,33.60
2018-05-16T12:26:56.831Z,34.90
2018-05-16T12:29:25.279Z,44.10
2018-05-16T12:31:54.419Z,37.80
2018-05-16T12:34:23.745Z,39.70
2018-05-16T12:36:52.181Z,39.60
2018-05-16T12:39:20.718Z,33.20
2018-05-16T12:41:49.153Z,40.80
2018-05-16T12:44:17.599Z,36.10
2018-05-16T12:46:46.095Z,32.20
2018-05-16T12:49:16.180Z,32.90
2018-05-16T12:51:44.591Z,28.70
2018-05-16T12:54:13.791Z,25.40
2018-05-16T12:56:42.195Z,25.40
2018-05-16T12:59:10.575Z,33.50
2018-05-16T13:01:38.989Z,41.50
2018-05-16T13:04:07.342Z,33.90
2018-05-16T13:06:36.500Z,26.40
2018-05-16T13:09:05.655Z,26.40
2018-05-16T13:11:35.723Z,25.00
2018-05-16T13:14:04.145Z,25.00
2018-05-16T13:16:32.536Z,22.70
2018-05-16T13:19:01.671Z,19.50
2018-05-16T13:21:30.154Z,19.40
2018-05-16T13:23:58.483Z,23.40
2018-05-16T13:26:26.888Z,24.30
2018-05-16T13:28:57.245Z,33.80
2018-05-16T13:31:26.379Z,40.60
2018-05-16T13:33:54.759Z,40.60
2018-05-16T13:36:23.204Z,33.40
2018-05-16T13:38:52.959Z,33.50
2018-05-16T13:41:21.345Z,33.50
2018-05-16T13:43:49.841Z,53.50
2018-05-16T13:46:18.269Z,43.30
2018-05-16T13:48:46.610Z,53.50
2018-05-16T13:51:16.450Z,51.40
2018-05-16T13:53:44.807Z,55.20
2018-05-16T13:56:13.179Z,48.80
2018-05-16T13:58:41.565Z,46.00
2018-05-16T14:01:09.963Z,41.90
2018-05-16T14:03:38.335Z,40.50
2018-05-16T14:06:06.737Z,36.40
2018-05-16T14:08:35.111Z,94.50
2018-05-16T14:11:03.498Z,94.10
2018-05-16T14:13:32.915Z,92.00
2018-05-16T14:16:01.316Z,90.30
2018-05-16T14:18:29.856Z,73.10
2018-05-16T14:20:58.287Z,79.90
2018-05-16T14:23:26.703Z,54.00
2018-05-16T14:25:55.259Z,58.30
2018-05-16T14:28:24.427Z,55.10
2018-05-16T14:30:53.343Z,55.40
2018-05-16T14:33:21.704Z,51.20
2018-05-16T14:35:50.115Z,50.50
2018-05-16T14:38:19.348Z,42.80
2018-05-16T14:40:47.898Z,42.80
2018-05-16T14:43:17.079Z,69.70
2018-05-16T14:45:45.659Z,69.60
2018-05-16T14:48:14.052Z,85.90
2018-05-16T14:50:42.555Z,65.00
2018-05-16T14:53:12.411Z,61.90
2018-05-16T14:55:40.923Z,62.10
2018-05-16T14:58:09.344Z,51.50
2018-05-16T15:00:37.874Z,39.40
2018-05-16T15:03:06.407Z,35.90
2018-05-16T15:05:35.616Z,36.70
2018-05-16T15:08:04.793Z,36.30
2018-05-16T15:10:34.157Z,29.90
2018-05-16T15:13:02.522Z,29.90
2018-05-16T15:15:30.927Z,34.30
2018-05-16T15:18:00.067Z,38.30
2018-05-16T15:20:28.503Z,38.20
2018-05-16T15:22:57.064Z,41.00
2018-05-16T15:25:25.595Z,47.30
2018-05-16T15:27:54.832Z,55.60
2018-05-16T15:30:23.219Z,55.70
2018-05-16T15:32:52.519Z,40.20
2018-05-16T15:35:21.050Z,40.10
2018-05-16T15:37:49.419Z,41.70
2018-05-16T15:40:17.815Z,58.50
2018-05-16T15:42:46.369Z,48.90
2018-05-16T15:45:14.755Z,64.20
2018-05-16T15:47:43.126Z,82.90
2018-05-16T15:50:11.530Z,78.40
2018-05-16T15:52:40.827Z,92.00
2018-05-16T15:55:09.357Z,92.10
2018-05-16T15:57:38.166Z,99.90
2018-05-16T16:00:07.314Z,97.70
2018-05-16T16:02:36.971Z,97.60
2018-05-16T16:05:05.507Z,95.60
2018-05-16T16:07:34.246Z,94.40
2018-05-16T16:10:02.718Z,78.20
2018-05-16T16:12:31.084Z,75.10
2018-05-16T16:14:59.532Z,74.40
2018-05-16T16:17:28.688Z,93.30
2018-05-16T16:19:57.242Z,93.30
2018-05-16T16:22:25.651Z,78.50
2018-05-16T16:24:54.795Z,93.70
2018-05-16T16:27:23.211Z,99.90
2018-05-16T16:29:51.612Z,99.90
2018-05-16T16:32:20.011Z,99.90
2018-05-16T16:34:48.426Z,98.40
2018-05-16T16:37:16.807Z,97.60
2018-05-16T16:39:45.229Z,92.20
2018-05-16T16:42:13.615Z,81.60
2018-05-16T16:44:42.023Z,77.40
2018-05-16T16:47:10.595Z,66.20
2018-05-16T16:49:38.968Z,52.40
2018-05-16T16:52:07.355Z,57.60
2018-05-16T16:54:36.737Z,73.90
2018-05-16T16:57:05.234Z,73.90
2018-05-16T16:59:33.600Z,81.70
2018-05-16T17:02:02.749Z,51.90
2018-05-16T17:04:31.361Z,52.10
2018-05-16T17:07:00.641Z,51.10
2018-05-16T17:09:29.074Z,50.90
2018-05-16T17:11:58.232Z,40.70
2018-05-16T17:14:27.418Z,40.60
2018-05-16T17:16:55.806Z,45.70
2018-05-16T17:19:25.155Z,47.20
2018-05-16T17:21:54.966Z,47.10
2018-05-16T17:24:24.117Z,47.20
2018-05-16T17:26:53.516Z,63.10
2018-05-16T17:29:21.884Z,63.00
2018-05-16T17:31:50.419Z,60.30
2018-05-16T17:34:18.796Z,71.60
2018-05-16T17:36:49.111Z,76.00
2018-05-16T17:39:17.489Z,83.10
2018-05-16T17:41:45.928Z,85.60
2018-05-16T17:44:14.463Z,90.40
2018-05-16T17:46:42.996Z,92.90
2018-05-16T17:49:11.450Z,93.70
2018-05-16T17:51:40.715Z,95.70
2018-05-16T17:54:10.815Z,98.90
2018-05-16T17:56:39.160Z,98.90
2018-05-16T17:59:07.536Z,99.90
2018-05-16T18:01:36.863Z,99.90
2018-05-16T18:04:05.416Z,99.90
2018-05-16T18:06:33.887Z,99.90
2018-05-16T18:09:02.216Z,99.90
2018-05-16T18:11:30.578Z,99.90
2018-05-16T18:14:10.787Z,99.90
2018-05-16T18:16:51.719Z,99.90
2018-05-16T18:19:20.102Z,99.90
2018-05-16T18:21:48.504Z,99.90
2018-05-16T18:24:16.872Z,99.90
2018-05-16T18:26:45.295Z,99.90
2018-05-16T18:29:13.839Z,99.90
2018-05-16T18:31:42.231Z,99.90
2018-05-16T18:34:10.627Z,99.90
2018-05-16T18:36:39.051Z,99.90
2018-05-16T18:39:07.625Z,99.90
2018-05-16T18:41:36.148Z,99.90
2018-05-16T18:44:05.503Z,99.90
2018-05-16T18:46:34.036Z,99.90
2018-05-16T18:49:02.627Z,99.90
2018-05-16T18:51:31.767Z,99.90
2018-05-16T18:54:00.127Z,99.90
2018-05-16T18:56:28.479Z,99.90
2018-05-16T18:58:56.866Z,99.90
2018-05-16T19:01:25.404Z,99.90
2018-05-16T19:03:53.899Z,99.90
2018-05-16T19:06:22.250Z,99.90
2018-05-16T19:08:50.700Z,99.90
2018-05-16T19:11:19.846Z,99.90
2018-05-16T19:13:48.211Z,99.90
2018-05-16T19:16:16.571Z,99.90
2018-05-16T19:18:45.004Z,99.90
2018-05-16T19:21:13.390Z,99.90
2018-05-16T19:23:41.807Z,99.90
2018-05-16T19:26:10.345Z,99.90
2018-05-16T19:28:38.784Z,99.90
2018-05-16T19:31:07.182Z,99.90
2018-05-16T19:33:35.756Z,99.90
2018-05-16T19:36:04.175Z,99.90
2018-05-16T19:38:33.471Z,99.90
2018-05-16T19:41:02.019Z,99.90
2018-05-16T19:43:30.467Z,99.90
2018-05-16T19:45:59.687Z,99.90
2018-05-16T19:48:28.244Z,99.90
2018-05-16T19:50:56.659Z,99.90
2018-05-16T19:53:25.137Z,99.90
2018-05-16T19:55:53.678Z,99.90
2018-05-16T19:58:22.253Z,99.90
2018-05-16T20:00:50.786Z,99.90
2018-05-16T20:03:19.227Z,99.90
2018-05-16T20:05:48.646Z,99.90
2018-05-16T20:08:17.034Z,99.90
2018-05-16T20:10:46.154Z,99.90
2018-05-16T20:13:14.598Z,99.90
2018-05-16T20:15:43.145Z,99.90
2018-05-16T20:18:12.400Z,99.90
2018-05-16T20:20:40.954Z,99.90
2018-05-16T20:23:09.943Z,99.90
2018-05-16T20:25:38.346Z,99.90
2018-05-16T20:28:07.495Z,99.90
2018-05-16T20:30:35.894Z,99.90
2018-05-16T20:33:05.248Z,99.90
2018-05-16T20:35:33.776Z,99.90
2018-05-16T20:38:02.995Z,99.90
2018-05-16T20:40:31.544Z,99.90
2018-05-16T20:43:00.683Z,99.90
2018-05-16T20:45:29.174Z,99.90
2018-05-16T20:47:57.562Z,99.90
2018-05-16T20:50:26.105Z,99.90
2018-05-16T20:52:54.529Z,99.90
2018-05-16T20:55:23.074Z,99.90
2018-05-16T20:57:51.514Z,99.90
2018-05-16T21:00:19.886Z,99.90
2018-05-16T21:02:48.291Z,99.90
2018-05-16T21:05:16.683Z,99.90
2018-05-16T21:07:45.862Z,99.90
2018-05-16T21:10:14.395Z,99.90
2018-05-16T21:12:42.815Z,99.90
2018-05-16T21:15:13.066Z,99.90
2018-05-16T21:17:42.249Z,99.90
2018-05-16T21:20:10.611Z,99.90
2018-05-16T21:22:39.049Z,99.90
2018-05-16T21:25:07.460Z,99.90
2018-05-16T21:27:35.870Z,99.90
2018-05-16T21:30:06.095Z,99.90
2018-05-16T21:32:34.502Z,99.90
2018-05-16T21:35:02.895Z,99.90
2018-05-16T21:37:31.331Z,99.90
2018-05-16T21:39:59.904Z,99.90
2018-05-16T21:42:28.254Z,99.90
2018-05-16T21:44:56.623Z,99.90
2018-05-16T21:47:25.010Z,99.90
2018-05-16T21:49:53.421Z,99.90
2018-05-16T21:52:21.818Z,99.90
2018-05-16T21:54:50.959Z,99.90
2018-05-16T21:57:20.295Z,99.90
2018-05-16T21:59:48.684Z,99.90
2018-05-16T22:02:17.075Z,99.90
2018-05-16T22:04:46.391Z,99.90
2018-05-16T22:07:14.789Z,99.90
2018-05-16T22:09:44.556Z,99.90
2018-05-16T22:12:13.108Z,99.90
2018-05-16T22:14:41.643Z,99.90
2018-05-16T22:17:10.177Z,99.90
2018-05-16T22:19:38.610Z,99.90
2018-05-16T22:22:07.144Z,99.90
2018-05-16T22:24:35.536Z,99.90
2018-05-16T22:27:03.926Z,99.90
2018-05-16T22:29:33.150Z,99.90
2018-05-16T22:32:08.182Z,99.90
2018-05-16T22:34:42.267Z,99.90
2018-05-16T22:37:17.268Z,99.90
2018-05-16T22:39:51.471Z,99.90
2018-05-16T22:42:25.659Z,99.90
2018-05-16T22:44:55.880Z,99.90
2018-05-16T22:47:25.175Z,99.90
2018-05-16T22:49:53.568Z,99.90
2018-05-16T22:52:22.624Z,99.90
2018-05-16T22:54:51.150Z,99.90
2018-05-16T22:57:19.702Z,99.90
2018-05-16T22:59:48.259Z,99.90
2018-05-16T23:02:16.773Z,99.90
2018-05-16T23:04:45.158Z,99.90
2018-05-16T23:07:14.087Z,99.90
2018-05-16T23:09:42.628Z,99.90
2018-05-16T23:12:11.176Z,99.90
2018-05-16T23:14:40.491Z,99.90
2018-05-16T23:17:09.031Z,99.90
2018-05-16T23:19:37.595Z,99.90
2018-05-16T23:22:06.155Z,99.90
2018-05-16T23:24:35.455Z,99.90
2018-05-16T23:27:04.771Z,99.90
2018-05-16T23:29:34.067Z,99.90
2018-05-16T23:32:03.391Z,99.90
2018-05-16T23:34:31.935Z,99.90
2018-05-16T23:37:02.706Z,99.90
2018-05-16T23:39:32.003Z,99.90
2018-05-16T23:42:01.339Z,99.90
2018-05-16T23:44:29.763Z,99.90
2018-05-16T23:46:59.291Z,99.90
2018-05-16T23:49:28.631Z,99.90
2018-05-16T23:51:57.170Z,99.90
2018-05-16T23:54:25.735Z,99.90
2018-05-16T23:56:54.279Z,99.90
2018-05-16T23:59:22.670Z,99.90
